Time,TemperatureF,DewpointF,PressureIn,WindDirection,WindDirectionDegrees,WindSpeedMPH,WindSpeedGustMPH,Humidity,HourlyPrecipIn,Conditions,Clouds,dailyrainin,SolarRadiationWatts/m^2,SoftwareType,DateUTC
2013-07-29 00:14:00,70.5,46.0,29.74,West,259,6.0,-999.0,41,-99.99,,,0.00,0,weatherlink.com 1.10,2013-07-29 07:14:00,
2013-07-29 00:30:00,70.2,45.0,29.74,West,265,4.0,-999.0,41,-99.99,,,0.00,0,weatherlink.com 1.10,2013-07-29 07:30:00,
2013-07-29 00:44:00,69.9,46.0,29.74,SW,232,6.0,-999.0,42,-99.99,,,0.00,0,weatherlink.com 1.10,2013-07-29 07:44:00,
2013-07-29 00:59:00,69.5,46.0,29.74,West,262,7.0,-999.0,43,-99.99,,,0.00,0,weatherlink.com 1.10,2013-07-29 07:59:00,
2013-07-29 01:14:00,69.4,46.0,29.74,WSW,241,8.0,-999.0,43,-99.99,,,0.00,0,weatherlink.com 1.10,2013-07-29 08:14:00,
2013-07-29 01:29:00,69.5,46.0,29.74,WSW,253,9.0,-999.0,43,-99.99,,,0.00,0,weatherlink.com 1.10,2013-07-29 08:29:00,
2013-07-29 01:44:00,69.3,46.0,29.74,WSW,250,6.0,-999.0,43,-99.99,,,0.00,0,weatherlink.com 1.10,2013-07-29 08:44:00,
2013-07-29 01:59:00,69.3,46.0,29.74,WSW,248,6.0,-999.0,43,-99.99,,,0.00,0,weatherlink.com 1.10,2013-07-29 08:59:00,
2013-07-29 02:14:00,69.1,46.0,29.74,West,267,7.0,-999.0,43,-99.99,,,0.00,0,weatherlink.com 1.10,2013-07-29 09:14:00,
2013-07-29 02:29:00,68.9,46.0,29.74,WSW,237,11.0,-999.0,44,-99.99,,,0.00,0,weatherlink.com 1.10,2013-07-29 09:29:00,
2013-07-29 02:45:00,68.8,46.0,29.74,West,268,8.0,-999.0,44,-99.99,,,0.00,0,weatherlink.com 1.10,2013-07-29 09:45:00,
2013-07-29 03:00:00,68.7,46.0,29.74,SW,236,9.0,-999.0,44,-99.99,,,0.00,0,weatherlink.com 1.10,2013-07-29 10:00:00,
2013-07-29 03:15:00,68.7,46.0,29.74,WSW,242,7.0,-999.0,44,-99.99,,,0.00,0,weatherlink.com 1.10,2013-07-29 10:15:00,
2013-07-29 03:30:00,68.3,45.0,29.74,West,263,7.0,-999.0,44,-99.99,,,0.00,0,weatherlink.com 1.10,2013-07-29 10:30:00,
2013-07-29 03:45:00,68.2,45.0,29.74,WSW,242,6.0,-999.0,44,-99.99,,,0.00,0,weatherlink.com 1.10,2013-07-29 10:45:00,
2013-07-29 04:00:00,68.4,46.0,29.74,WSW,247,7.0,-999.0,44,-99.99,,,0.00,0,weatherlink.com 1.10,2013-07-29 11:00:00,
2013-07-29 04:15:00,68.2,45.0,29.75,West,265,0.0,-999.0,44,-99.99,,,0.00,0,weatherlink.com 1.10,2013-07-29 11:15:00,
2013-07-29 04:30:00,67.7,45.0,29.75,WNW,303,1.0,-999.0,45,-99.99,,,0.00,0,weatherlink.com 1.10,2013-07-29 11:30:00,
2013-07-29 04:45:00,66.9,46.0,29.75,WNW,301,0.0,-999.0,47,-99.99,,,0.00,0,weatherlink.com 1.10,2013-07-29 11:45:00,
2013-07-29 05:00:00,66.6,46.0,29.75,WNW,296,0.0,-999.0,48,-99.99,,,0.00,0,weatherlink.com 1.10,2013-07-29 12:00:00,
2013-07-29 05:30:00,66.2,45.0,29.76,West,261,0.0,-999.0,46,-99.99,,,0.00,0,weatherlink.com 1.10,2013-07-29 12:30:00,
2013-07-29 05:45:00,65.1,45.0,29.76,West,261,0.0,-999.0,48,-99.99,,,0.00,0,weatherlink.com 1.10,2013-07-29 12:45:00,
2013-07-29 06:00:00,63.5,45.0,29.76,NNW,340,0.0,-999.0,52,-99.99,,,0.00,0,weatherlink.com 1.10,2013-07-29 13:00:00,
2013-07-29 06:15:00,62.3,45.0,29.77,NNW,340,0.0,-999.0,54,-99.99,,,0.00,11,weatherlink.com 1.10,2013-07-29 13:15:00,
2013-07-29 06:30:00,61.2,45.0,29.77,NNW,340,0.0,-999.0,55,-99.99,,,0.00,26,weatherlink.com 1.10,2013-07-29 13:30:00,
2013-07-29 06:45:00,61.5,45.0,29.78,NNW,340,2.0,-999.0,56,-99.99,,,0.00,60,weatherlink.com 1.10,2013-07-29 13:45:00,
2013-07-29 07:00:00,62.7,46.0,29.78,NNW,340,0.0,-999.0,55,-99.99,,,0.00,105,weatherlink.com 1.10,2013-07-29 14:00:00,
2013-07-29 07:15:00,65.5,47.0,29.78,NNW,340,0.0,-999.0,51,-99.99,,,0.00,163,weatherlink.com 1.10,2013-07-29 14:15:00,
2013-07-29 07:45:00,70.0,47.0,29.79,NNE,28,0.0,-999.0,44,-99.99,,,0.00,267,weatherlink.com 1.10,2013-07-29 14:45:00,
2013-07-29 08:01:00,71.5,46.0,29.79,NNE,27,0.0,-999.0,41,-99.99,,,0.00,315,weatherlink.com 1.10,2013-07-29 15:01:00,
2013-07-29 08:16:00,73.1,47.0,29.80,NNE,20,2.0,-999.0,40,-99.99,,,0.00,366,weatherlink.com 1.10,2013-07-29 15:16:00,
2013-07-29 08:31:00,74.7,48.0,29.80,North,355,5.0,-999.0,39,-99.99,,,0.00,415,weatherlink.com 1.10,2013-07-29 15:31:00,
2013-07-29 08:46:00,75.6,47.0,29.80,NNW,328,4.0,-999.0,37,-99.99,,,0.00,462,weatherlink.com 1.10,2013-07-29 15:46:00,
2013-07-29 09:16:00,78.1,47.0,29.80,NNW,336,3.0,-999.0,34,-99.99,,,0.00,559,weatherlink.com 1.10,2013-07-29 16:16:00,
2013-07-29 09:31:00,80.3,47.0,29.80,NNW,341,3.0,-999.0,31,-99.99,,,0.00,603,weatherlink.com 1.10,2013-07-29 16:31:00,
2013-07-29 09:46:00,80.7,47.0,29.80,NW,309,6.0,-999.0,30,-99.99,,,0.00,643,weatherlink.com 1.10,2013-07-29 16:46:00,
2013-07-29 10:16:00,82.4,44.0,29.81,North,9,5.0,-999.0,26,-99.99,,,0.00,715,weatherlink.com 1.10,2013-07-29 17:16:00,
2013-07-29 11:01:00,84.6,44.0,29.81,North,5,4.0,-999.0,24,-99.99,,,0.00,810,weatherlink.com 1.10,2013-07-29 18:01:00,
2013-07-29 11:32:00,85.2,45.0,29.81,NNW,331,6.0,-999.0,24,-99.99,,,0.00,861,weatherlink.com 1.10,2013-07-29 18:32:00,
2013-07-29 12:17:00,87.3,45.0,29.82,WNW,303,9.0,-999.0,23,-99.99,,,0.00,911,weatherlink.com 1.10,2013-07-29 19:17:00,
2013-07-29 12:32:00,87.8,46.0,29.82,North,360,6.0,-999.0,23,-99.99,,,0.00,916,weatherlink.com 1.10,2013-07-29 19:32:00,
2013-07-29 12:47:00,88.7,44.0,29.81,WNW,302,7.0,-999.0,21,-99.99,,,0.00,925,weatherlink.com 1.10,2013-07-29 19:47:00,
2013-07-29 13:02:00,88.4,43.0,29.82,NW,312,7.0,-999.0,20,-99.99,,,0.00,925,weatherlink.com 1.10,2013-07-29 20:02:00,
2013-07-29 13:17:00,89.0,44.0,29.82,NNW,334,13.0,-999.0,21,-99.99,,,0.00,923,weatherlink.com 1.10,2013-07-29 20:17:00,
2013-07-29 13:32:00,87.6,44.0,29.81,North,355,10.0,-999.0,22,-99.99,,,0.00,914,weatherlink.com 1.10,2013-07-29 20:32:00,
2013-07-29 13:47:00,87.9,45.0,29.82,NW,317,11.0,-999.0,22,-99.99,,,0.00,905,weatherlink.com 1.10,2013-07-29 20:47:00,
2013-07-29 14:32:00,89.5,41.0,29.81,NNW,336,18.0,-999.0,18,-99.99,,,0.00,854,weatherlink.com 1.10,2013-07-29 21:32:00,
2013-07-29 14:47:00,89.6,39.0,29.81,WNW,288,6.0,-999.0,17,-99.99,,,0.00,838,weatherlink.com 1.10,2013-07-29 21:47:00,
2013-07-29 15:02:00,90.2,40.0,29.80,WNW,288,14.0,-999.0,17,-99.99,,,0.00,809,weatherlink.com 1.10,2013-07-29 22:02:00,
2013-07-29 15:32:00,90.5,35.0,29.81,West,270,11.0,-999.0,14,-99.99,,,0.00,745,weatherlink.com 1.10,2013-07-29 22:32:00,
2013-07-29 15:47:00,89.5,36.0,29.80,West,265,12.0,-999.0,15,-99.99,,,0.00,707,weatherlink.com 1.10,2013-07-29 22:47:00,
2013-07-29 16:02:00,90.0,41.0,29.80,NW,309,3.0,-999.0,18,-99.99,,,0.00,671,weatherlink.com 1.10,2013-07-29 23:02:00,
2013-07-29 16:17:00,89.6,42.0,29.80,NNW,330,16.0,-999.0,19,-99.99,,,0.00,629,weatherlink.com 1.10,2013-07-29 23:17:00,
2013-07-29 16:32:00,89.0,42.0,29.80,WNW,298,9.0,-999.0,19,-99.99,,,0.00,582,weatherlink.com 1.10,2013-07-29 23:32:00,
2013-07-29 16:47:00,88.8,40.0,29.80,WNW,300,10.0,-999.0,18,-99.99,,,0.00,536,weatherlink.com 1.10,2013-07-29 23:47:00,
2013-07-29 17:02:00,88.7,40.0,29.80,West,281,11.0,-999.0,18,-99.99,,,0.00,492,weatherlink.com 1.10,2013-07-30 00:02:00,
2013-07-29 17:17:00,88.4,44.0,29.80,NW,309,10.0,-999.0,21,-99.99,,,0.00,441,weatherlink.com 1.10,2013-07-30 00:17:00,
2013-07-29 17:32:00,87.6,42.0,29.81,WNW,293,7.0,-999.0,20,-99.99,,,0.00,392,weatherlink.com 1.10,2013-07-30 00:32:00,
2013-07-29 17:47:00,87.2,44.0,29.80,NW,307,8.0,-999.0,22,-99.99,,,0.00,339,weatherlink.com 1.10,2013-07-30 00:47:00,
2013-07-29 18:02:00,87.0,43.0,29.80,West,276,4.0,-999.0,21,-99.99,,,0.00,294,weatherlink.com 1.10,2013-07-30 01:02:00,
2013-07-29 18:17:00,85.8,42.0,29.80,WNW,286,3.0,-999.0,21,-99.99,,,0.00,246,weatherlink.com 1.10,2013-07-30 01:17:00,
2013-07-29 18:32:00,85.0,43.0,29.81,West,277,6.0,-999.0,23,-99.99,,,0.00,195,weatherlink.com 1.10,2013-07-30 01:32:00,
2013-07-29 18:47:00,83.6,45.0,29.81,West,274,10.0,-999.0,26,-99.99,,,0.00,149,weatherlink.com 1.10,2013-07-30 01:47:00,
2013-07-29 19:32:00,80.6,46.0,29.82,West,267,11.0,-999.0,29,-99.99,,,0.00,21,weatherlink.com 1.10,2013-07-30 02:32:00,
2013-07-29 19:47:00,79.5,45.0,29.83,SW,231,9.0,-999.0,30,-99.99,,,0.00,9,weatherlink.com 1.10,2013-07-30 02:47:00,
2013-07-29 20:02:00,78.6,45.0,29.83,West,263,8.0,-999.0,31,-99.99,,,0.00,0,weatherlink.com 1.10,2013-07-30 03:02:00,
2013-07-29 20:17:00,77.9,45.0,29.84,West,279,6.0,-999.0,31,-99.99,,,0.00,0,weatherlink.com 1.10,2013-07-30 03:17:00,
2013-07-29 20:32:00,77.0,45.0,29.84,WNW,288,6.0,-999.0,32,-99.99,,,0.00,0,weatherlink.com 1.10,2013-07-30 03:32:00,
2013-07-29 20:47:00,76.3,45.0,29.84,WSW,242,4.0,-999.0,33,-99.99,,,0.00,0,weatherlink.com 1.10,2013-07-30 03:47:00,
2013-07-29 21:02:00,75.7,45.0,29.85,West,259,6.0,-999.0,34,-99.99,,,0.00,0,weatherlink.com 1.10,2013-07-30 04:02:00,
2013-07-29 21:17:00,74.9,45.0,29.86,WSW,251,3.0,-999.0,35,-99.99,,,0.00,0,weatherlink.com 1.10,2013-07-30 04:17:00,
2013-07-29 21:32:00,74.1,45.0,29.87,SW,229,5.0,-999.0,35,-99.99,,,0.00,0,weatherlink.com 1.10,2013-07-30 04:32:00,
2013-07-29 21:47:00,73.8,45.0,29.87,SW,221,7.0,-999.0,36,-99.99,,,0.00,0,weatherlink.com 1.10,2013-07-30 04:47:00,
2013-07-29 22:03:00,73.6,45.0,29.88,SW,233,4.0,-999.0,36,-99.99,,,0.00,0,weatherlink.com 1.10,2013-07-30 05:03:00,
2013-07-29 22:18:00,73.3,45.0,29.88,WSW,245,4.0,-999.0,36,-99.99,,,0.00,0,weatherlink.com 1.10,2013-07-30 05:18:00,
2013-07-29 22:33:00,72.7,44.0,29.88,SW,229,5.0,-999.0,36,-99.99,,,0.00,0,weatherlink.com 1.10,2013-07-30 05:33:00,
2013-07-29 22:48:00,72.5,45.0,29.88,WSW,252,5.0,-999.0,37,-99.99,,,0.00,0,weatherlink.com 1.10,2013-07-30 05:48:00,
2013-07-29 23:03:00,72.3,44.0,29.89,WSW,240,5.0,-999.0,37,-99.99,,,0.00,0,weatherlink.com 1.10,2013-07-30 06:03:00,
2013-07-29 23:18:00,71.9,45.0,29.89,WSW,246,6.0,-999.0,38,-99.99,,,0.00,0,weatherlink.com 1.10,2013-07-30 06:18:00,
2013-07-29 23:33:00,71.7,45.0,29.89,West,267,3.0,-999.0,38,-99.99,,,0.00,0,weatherlink.com 1.10,2013-07-30 06:33:00,
2013-07-29 23:48:00,70.9,45.0,29.89,West,275,4.0,-999.0,39,-99.99,,,0.00,0,weatherlink.com 1.10,2013-07-30 06:48:00,